Time;durP1;ratioP1;P1;durP2;ratioP2;P2;SDS_P1;SDS_P2;PMS_P1;PMS_P2;Temp;Humidity;BMP_temperature;BMP_pressure;BME280_temperature;BME280_humidity;BME280_pressure;Samples;Min_cycle;Max_cycle;Signal;HPM_P1;HPM_P2
2021/08/25 00:02:09;;;;;;;7.00;3.25;;;15.90;92.60;;;;;;5013140;28;20042;-69
2021/08/25 00:04:36;;;;;;;7.95;2.85;;;15.80;92.70;;;;;;5014289;28;20092;-70
2021/08/25 00:07:01;;;;;;;6.43;3.13;;;15.70;92.70;;;;;;5014193;28;20038;-70
2021/08/25 00:09:27;;;;;;;5.00;2.88;;;15.80;92.80;;;;;;5013953;28;20034;-70
2021/08/25 00:11:52;;;;;;;6.47;3.05;;;15.70;92.70;;;;;;5013949;28;20041;-70
2021/08/25 00:14:18;;;;;;;8.70;3.60;;;15.60;92.80;;;;;;5014461;28;20045;-70
2021/08/25 00:16:43;;;;;;;5.50;3.05;;;15.60;92.90;;;;;;5012842;28;20030;-69
2021/08/25 00:19:09;;;;;;;6.15;3.42;;;15.60;93.10;;;;;;5013754;28;20072;-70
2021/08/25 00:21:34;;;;;;;5.78;2.85;;;15.60;93.20;;;;;;5012581;28;20371;-70
2021/08/25 00:24:00;;;;;;;8.15;3.40;;;15.60;93.20;;;;;;5013765;28;20028;-70
2021/08/25 00:26:25;;;;;;;8.40;3.30;;;15.60;93.10;;;;;;5013504;28;20415;-70
2021/08/25 00:28:51;;;;;;;7.57;3.08;;;15.50;93.00;;;;;;5014184;28;20026;-71
2021/08/25 00:31:17;;;;;;;13.32;3.30;;;15.50;93.10;;;;;;5013746;28;20038;-70
2021/08/25 00:33:42;;;;;;;9.70;3.80;;;15.40;93.30;;;;;;5012453;28;20041;-71
2021/08/25 00:36:08;;;;;;;9.40;3.42;;;15.40;93.40;;;;;;5013381;28;20033;-70
2021/08/25 00:38:33;;;;;;;6.85;3.33;;;15.40;93.50;;;;;;5013294;28;20029;-70
2021/08/25 00:40:59;;;;;;;7.07;3.25;;;15.30;93.50;;;;;;5013635;28;20036;-71
2021/08/25 00:43:25;;;;;;;6.15;3.30;;;15.20;93.50;;;;;;5013363;28;20034;-71
2021/08/25 00:45:51;;;;;;;8.32;3.78;;;15.30;93.50;;;;;;5013281;28;20125;-71
2021/08/25 00:48:19;;;;;;;6.53;3.25;;;15.20;93.50;;;;;;5013217;28;20030;-71
2021/08/25 00:50:47;;;;;;;4.30;2.90;;;15.20;93.40;;;;;;5011876;28;20459;-70
2021/08/25 00:53:13;;;;;;;6.30;3.20;;;15.20;93.80;;;;;;5013604;28;20067;-71
2021/08/25 00:55:40;;;;;;;7.15;3.75;;;15.00;93.60;;;;;;5012080;28;20034;-70
2021/08/25 00:58:08;;;;;;;8.43;3.70;;;15.00;93.80;;;;;;5012973;28;20117;-71
2021/08/25 01:00:38;;;;;;;6.72;3.60;;;14.90;93.90;;;;;;5013252;28;20034;-70
2021/08/25 01:03:16;;;;;;;7.55;3.70;;;15.00;93.90;;;;;;5012932;28;20455;-70
2021/08/25 01:05:42;;;;;;;7.00;3.83;;;14.90;93.90;;;;;;5012970;28;20034;-70
2021/08/25 01:08:11;;;;;;;6.10;3.40;;;14.90;94.00;;;;;;5013422;28;20397;-70
2021/08/25 01:10:37;;;;;;;7.00;4.05;;;14.80;94.10;;;;;;5012703;28;20626;-69
2021/08/25 01:13:05;;;;;;;9.13;4.32;;;14.80;94.10;;;;;;5011401;28;20133;-70
2021/08/25 01:15:37;;;;;;;12.50;4.18;;;14.90;94.10;;;;;;5012710;28;20040;-70
2021/08/25 01:18:05;;;;;;;8.10;4.13;;;14.90;94.10;;;;;;5012824;28;20042;-70
2021/08/25 01:20:32;;;;;;;12.15;5.25;;;14.80;94.20;;;;;;5012838;28;20057;-71
2021/08/25 01:22:59;;;;;;;10.93;4.60;;;14.90;94.40;;;;;;5012883;28;20034;-69
2021/08/25 01:25:26;;;;;;;8.30;4.90;;;14.90;94.40;;;;;;5012456;28;20037;-70
2021/08/25 01:27:58;;;;;;;11.80;5.60;;;14.80;94.40;;;;;;5012565;28;20365;-70
2021/08/25 01:30:27;;;;;;;10.82;4.78;;;14.80;94.40;;;;;;5012614;28;20255;-71
2021/08/25 01:32:52;;;;;;;8.60;4.43;;;14.70;94.40;;;;;;5012363;28;20363;-70
2021/08/25 01:35:18;;;;;;;14.52;5.55;;;14.70;94.40;;;;;;5012628;28;20022;-70
2021/08/25 01:37:46;;;;;;;12.13;4.57;;;14.60;94.50;;;;;;5011303;28;20061;-70
2021/08/25 01:40:12;;;;;;;10.50;5.00;;;14.60;94.60;;;;;;5012358;28;20026;-71
2021/08/25 01:42:37;;;;;;;13.55;5.40;;;14.70;94.50;;;;;;5012187;28;20137;-70
2021/08/25 01:45:04;;;;;;;14.05;5.20;;;14.70;94.50;;;;;;5012140;28;20116;-71
2021/08/25 01:47:30;;;;;;;14.45;5.22;;;14.70;94.60;;;;;;5012044;28;20096;-71
2021/08/25 01:49:55;;;;;;;12.30;4.82;;;14.70;94.60;;;;;;5011689;28;20025;-71
2021/08/25 01:52:21;;;;;;;9.75;4.78;;;14.60;94.60;;;;;;5012087;28;20456;-71
2021/08/25 01:54:49;;;;;;;19.77;5.10;;;14.60;94.70;;;;;;5012167;28;20046;-69
2021/08/25 01:57:15;;;;;;;12.50;4.25;;;14.60;94.70;;;;;;5011880;28;20595;-70
2021/08/25 01:59:41;;;;;;;7.95;4.32;;;14.50;94.70;;;;;;5012048;28;20050;-70
2021/08/25 02:02:07;;;;;;;8.80;4.55;;;14.60;94.80;;;;;;5012076;28;20018;-70
2021/08/25 02:04:34;;;;;;;8.85;4.38;;;14.50;94.80;;;;;;5043915;28;20112;-69
2021/08/25 02:07:00;;;;;;;9.17;4.17;;;14.50;94.80;;;;;;5031414;28;20091;-71
2021/08/25 02:09:26;;;;;;;8.18;4.38;;;14.50;94.90;;;;;;5031713;28;20033;-71
2021/08/25 02:11:51;;;;;;;8.52;4.65;;;14.50;94.90;;;;;;5031492;28;20090;-68
2021/08/25 02:14:17;;;;;;;9.60;4.80;;;14.40;94.90;;;;;;5032048;28;20455;-69
2021/08/25 02:16:42;;;;;;;11.45;5.28;;;14.50;95.00;;;;;;5031467;28;20174;-70
2021/08/25 02:19:08;;;;;;;10.35;4.70;;;14.40;95.10;;;;;;5030274;28;20103;-70
2021/08/25 02:21:34;;;;;;;8.43;4.05;;;14.40;95.10;;;;;;5031421;28;20025;-71
2021/08/25 02:24:00;;;;;;;12.35;4.80;;;14.30;95.10;;;;;;5031349;28;20044;-70
2021/08/25 02:26:25;;;;;;;7.07;3.67;;;14.30;95.10;;;;;;5031331;28;20040;-70
2021/08/25 02:28:53;;;;;;;11.65;4.30;;;14.30;95.20;;;;;;5031838;28;20036;-70
2021/08/25 02:31:21;;;;;;;8.15;4.30;;;14.30;95.10;;;;;;5031512;28;20475;-69
2021/08/25 02:33:48;;;;;;;10.93;4.03;;;14.30;95.10;;;;;;5031231;28;20040;-70
2021/08/25 02:36:16;;;;;;;11.30;4.53;;;14.40;95.10;;;;;;5031274;28;20517;-71
2021/08/25 02:38:42;;;;;;;9.52;4.40;;;14.30;95.20;;;;;;5031073;28;20612;-70
2021/08/25 02:41:10;;;;;;;8.38;3.80;;;14.30;95.20;;;;;;5031376;28;20034;-70
2021/08/25 02:43:36;;;;;;;10.27;4.55;;;14.30;95.30;;;;;;5031262;28;20044;-70
2021/08/25 02:46:02;;;;;;;9.88;4.03;;;14.30;95.30;;;;;;5031253;28;20059;-70
2021/08/25 02:48:28;;;;;;;9.70;4.00;;;14.20;95.30;;;;;;5029870;28;20103;-71
2021/08/25 02:50:53;;;;;;;9.98;3.92;;;14.30;95.30;;;;;;5030913;28;20025;-71
2021/08/25 02:53:19;;;;;;;11.05;4.60;;;14.30;95.30;;;;;;5031406;28;20091;-71
2021/08/25 02:55:46;;;;;;;8.38;4.00;;;14.20;95.50;;;;;;5031022;28;20049;-71
2021/08/25 02:58:12;;;;;;;14.18;4.28;;;14.20;95.50;;;;;;5029646;28;20085;-70
2021/08/25 03:00:37;;;;;;;9.40;4.60;;;14.20;95.40;;;;;;5030985;28;20076;-71
2021/08/25 03:03:03;;;;;;;12.30;3.75;;;14.20;95.50;;;;;;5030886;28;20087;-72
2021/08/25 03:05:30;;;;;;;9.43;4.45;;;14.10;95.50;;;;;;5030758;28;20033;-71
2021/08/25 03:07:55;;;;;;;9.52;4.13;;;14.10;95.50;;;;;;5031179;28;20026;-71
2021/08/25 03:10:21;;;;;;;9.00;3.67;;;14.20;95.60;;;;;;5046406;28;20596;-71
2021/08/25 03:12:46;;;;;;;9.88;4.22;;;14.10;95.50;;;;;;5030767;28;20041;-71
2021/08/25 03:15:12;;;;;;;8.48;4.10;;;14.10;95.40;;;;;;5030636;28;20036;-70
2021/08/25 03:17:38;;;;;;;6.93;4.35;;;14.00;95.50;;;;;;5031151;28;20029;-70
2021/08/25 03:20:07;;;;;;;9.05;4.15;;;14.00;95.60;;;;;;5034991;28;20474;-71
2021/08/25 03:22:33;;;;;;;9.52;4.38;;;14.10;95.70;;;;;;5034852;28;20052;-71
2021/08/25 03:24:59;;;;;;;9.75;4.32;;;14.00;95.60;;;;;;5034731;28;20029;-70
2021/08/25 03:27:24;;;;;;;9.23;3.97;;;14.00;95.60;;;;;;5034534;28;20463;-70
2021/08/25 03:29:50;;;;;;;9.98;3.97;;;14.00;95.60;;;;;;5034429;28;20048;-70
2021/08/25 03:32:16;;;;;;;8.35;3.83;;;14.00;95.60;;;;;;5034925;28;20359;-70
2021/08/25 03:34:41;;;;;;;8.80;3.97;;;14.00;95.50;;;;;;5034316;28;20029;-71
2021/08/25 03:37:07;;;;;;;15.32;4.28;;;14.10;95.50;;;;;;5034314;28;20033;-69
2021/08/25 03:39:33;;;;;;;10.68;4.57;;;14.00;95.50;;;;;;5034421;28;20033;-69
2021/08/25 03:41:58;;;;;;;10.05;4.43;;;14.10;95.30;;;;;;5034085;28;20103;-70
2021/08/25 03:44:25;;;;;;;9.93;4.20;;;14.20;95.40;;;;;;5034139;28;20040;-69
2021/08/25 03:46:50;;;;;;;11.75;4.57;;;14.20;95.50;;;;;;5034613;28;20064;-70
2021/08/25 03:49:16;;;;;;;11.45;4.78;;;14.10;95.60;;;;;;5034158;28;20133;-69
2021/08/25 03:51:42;;;;;;;10.25;4.00;;;14.10;95.60;;;;;;5034020;28;20041;-70
2021/08/25 03:54:07;;;;;;;9.30;4.28;;;14.10;95.60;;;;;;5034218;28;20099;-69
2021/08/25 03:56:33;;;;;;;11.35;4.60;;;14.20;95.50;;;;;;5032994;28;20021;-69
2021/08/25 03:58:59;;;;;;;9.30;4.07;;;14.30;95.40;;;;;;5034107;28;20049;-70
2021/08/25 04:01:24;;;;;;;14.88;4.03;;;14.30;95.30;;;;;;5033875;28;20123;-70
2021/08/25 04:03:53;;;;;;;16.67;4.22;;;14.30;95.40;;;;;;5033907;28;20634;-70
2021/08/25 04:06:18;;;;;;;8.98;4.70;;;14.40;95.30;;;;;;5033869;28;20120;-71
2021/08/25 04:08:44;;;;;;;10.50;5.10;;;14.40;95.10;;;;;;5033967;28;20108;-70
2021/08/25 04:11:10;;;;;;;8.88;4.28;;;14.40;95.60;;;;;;5034282;28;20021;-70
2021/08/25 04:13:35;;;;;;;8.90;3.72;;;14.40;95.60;;;;;;5033825;28;20034;-70
2021/08/25 04:16:01;;;;;;;13.77;4.50;;;14.40;95.60;;;;;;5033252;28;20618;-70
2021/08/25 04:18:27;;;;;;;8.35;4.05;;;14.40;95.50;;;;;;5033753;28;20029;-71
2021/08/25 04:20:52;;;;;;;11.95;4.63;;;14.50;95.50;;;;;;5033578;28;20128;-70
2021/08/25 04:23:18;;;;;;;7.95;3.83;;;14.50;95.60;;;;;;5033985;28;20030;-70
2021/08/25 04:25:44;;;;;;;11.25;4.38;;;14.50;95.50;;;;;;5033522;28;20360;-71
2021/08/25 04:28:10;;;;;;;12.38;4.60;;;14.40;95.70;;;;;;5033459;28;20033;-70
2021/08/25 04:30:36;;;;;;;11.07;4.57;;;14.40;95.60;;;;;;5033471;28;20175;-70
2021/08/25 04:33:03;;;;;;;8.55;4.10;;;14.50;95.70;;;;;;5033219;28;20033;-70
2021/08/25 04:35:28;;;;;;;9.52;4.32;;;14.40;95.70;;;;;;5033241;28;20033;-69
2021/08/25 04:37:54;;;;;;;14.23;4.68;;;14.40;95.70;;;;;;5033703;28;20184;-70
2021/08/25 04:40:19;;;;;;;14.73;4.32;;;14.40;95.80;;;;;;5033084;28;20483;-70
2021/08/25 04:42:45;;;;;;;10.15;3.67;;;14.30;95.80;;;;;;5032037;28;20041;-70
2021/08/25 04:45:11;;;;;;;12.73;4.60;;;14.40;95.80;;;;;;5033084;28;20392;-70
2021/08/25 04:47:36;;;;;;;10.95;4.43;;;14.40;95.90;;;;;;5032844;28;20102;-70
2021/08/25 04:50:03;;;;;;;11.70;4.68;;;14.50;95.80;;;;;;5033354;28;20347;-70
2021/08/25 04:52:28;;;;;;;9.65;4.47;;;14.60;95.70;;;;;;5032948;28;20033;-71
2021/08/25 04:54:54;;;;;;;12.00;4.78;;;14.60;95.60;;;;;;5031829;28;20029;-69
2021/08/25 04:57:19;;;;;;;10.82;4.00;;;14.60;95.70;;;;;;5032659;28;20136;-71
2021/08/25 04:59:45;;;;;;;12.15;5.13;;;14.70;95.60;;;;;;5032805;28;20041;-70
2021/08/25 05:02:10;;;;;;;7.90;3.97;;;14.70;95.60;;;;;;5032877;28;20061;-69
2021/08/25 05:04:36;;;;;;;11.57;4.32;;;14.70;95.80;;;;;;5032899;28;20109;-70
2021/08/25 05:07:02;;;;;;;9.90;3.95;;;14.70;95.80;;;;;;5032597;28;20486;-70
2021/08/25 05:09:27;;;;;;;9.50;4.28;;;14.80;95.80;;;;;;5032698;28;20492;-70
2021/08/25 05:11:53;;;;;;;7.80;3.88;;;14.80;96.00;;;;;;5032491;28;20030;-70
2021/08/25 05:14:19;;;;;;;11.40;4.93;;;14.80;95.90;;;;;;5031673;28;20321;-70
2021/08/25 05:16:44;;;;;;;10.10;4.30;;;14.80;95.80;;;;;;5032683;28;20035;-70
2021/08/25 05:19:10;;;;;;;10.55;4.60;;;14.80;95.90;;;;;;5032245;28;20104;-70
2021/08/25 05:21:35;;;;;;;9.65;4.38;;;14.80;95.80;;;;;;5032549;28;20544;-69
2021/08/25 05:24:01;;;;;;;9.70;4.07;;;14.80;95.70;;;;;;5032584;28;20467;-70
2021/08/25 05:26:30;;;;;;;8.85;4.60;;;14.90;95.80;;;;;;5031453;28;20052;-70
2021/08/25 05:28:56;;;;;;;9.77;4.30;;;15.00;95.70;;;;;;5032616;28;20017;-70
2021/08/25 05:31:23;;;;;;;14.05;4.05;;;15.10;95.80;;;;;;5032239;28;20376;-71
2021/08/25 05:33:49;;;;;;;11.05;4.60;;;15.10;95.90;;;;;;5031994;28;20163;-70
2021/08/25 05:36:14;;;;;;;11.23;4.68;;;15.10;95.90;;;;;;5031930;28;20490;-71
2021/08/25 05:38:40;;;;;;;9.77;4.93;;;15.20;95.90;;;;;;5031957;28;20029;-71
2021/08/25 05:41:06;;;;;;;9.70;4.47;;;15.20;95.90;;;;;;5031768;28;20025;-70
2021/08/25 05:43:31;;;;;;;10.65;4.88;;;15.20;95.70;;;;;;5031782;28;20044;-71
2021/08/25 05:45:57;;;;;;;10.02;4.50;;;15.30;95.60;;;;;;5030764;28;20022;-70
2021/08/25 05:48:22;;;;;;;11.90;4.60;;;15.30;95.50;;;;;;5031840;28;20109;-71
2021/08/25 05:50:48;;;;;;;12.10;5.03;;;15.40;95.40;;;;;;5028473;28;20034;-71
2021/08/25 05:53:13;;;;;;;11.45;4.80;;;15.60;95.30;;;;;;5032615;28;20025;-72
2021/08/25 05:55:39;;;;;;;9.15;4.38;;;15.50;95.30;;;;;;5031800;28;20467;-71
2021/08/25 05:58:05;;;;;;;10.55;5.05;;;15.50;95.20;;;;;;5031689;28;20344;-71
2021/08/25 06:00:31;;;;;;;14.52;4.82;;;15.40;95.20;;;;;;5031478;28;20087;-72
2021/08/25 06:02:57;;;;;;;14.32;5.18;;;15.50;95.20;;;;;;5031415;28;20041;-71
2021/08/25 06:05:23;;;;;;;10.20;4.85;;;15.60;95.20;;;;;;5028299;28;20033;-71
2021/08/25 06:07:48;;;;;;;13.95;5.30;;;15.60;95.20;;;;;;5032057;28;20399;-70
2021/08/25 06:10:14;;;;;;;13.77;5.45;;;15.70;95.20;;;;;;5031721;28;20452;-69
2021/08/25 06:12:39;;;;;;;11.23;5.22;;;15.60;95.20;;;;;;5030817;28;20121;-69
2021/08/25 06:15:06;;;;;;;11.50;6.05;;;15.50;95.20;;;;;;5031240;28;20125;-73
2021/08/25 06:17:31;;;;;;;13.90;5.40;;;15.50;95.30;;;;;;5031632;28;20060;-70
2021/08/25 06:19:57;;;;;;;10.20;4.60;;;15.60;95.20;;;;;;5031764;28;20061;-75
2021/08/25 06:22:23;;;;;;;13.43;5.95;;;15.70;95.40;;;;;;5031589;28;20138;-74
2021/08/25 06:24:48;;;;;;;10.68;5.13;;;15.70;95.10;;;;;;5022482;28;20118;-70
2021/08/25 06:27:14;;;;;;;11.15;5.28;;;15.80;95.00;;;;;;5031637;28;20029;-67
2021/08/25 06:29:39;;;;;;;9.40;4.43;;;15.80;95.00;;;;;;5031277;28;20371;-73
2021/08/25 06:32:07;;;;;;;11.15;4.78;;;15.80;94.80;;;;;;5031877;28;20037;-77
2021/08/25 06:34:33;;;;;;;12.30;5.20;;;15.90;94.80;;;;;;5029806;28;20040;-73
2021/08/25 06:36:59;;;;;;;10.98;5.07;;;15.80;94.70;;;;;;5031441;28;20071;-75
2021/08/25 06:39:25;;;;;;;19.15;6.05;;;15.80;94.60;;;;;;5022558;28;20042;-82
2021/08/25 06:41:50;;;;;;;15.60;6.43;;;16.00;94.50;;;;;;5010788;28;20128;-80
2021/08/25 06:44:16;;;;;;;13.18;5.10;;;16.00;94.60;;;;;;5012252;28;20076;-80
2021/08/25 06:46:41;;;;;;;10.90;4.93;;;16.10;94.70;;;;;;5010770;28;20026;-70
2021/08/25 06:49:07;;;;;;;10.93;4.78;;;16.10;94.50;;;;;;5011214;28;20037;-75
2021/08/25 06:51:33;;;;;;;11.63;5.03;;;16.10;94.30;;;;;;5010474;28;20033;-75
2021/08/25 06:53:59;;;;;;;10.43;4.90;;;16.00;94.30;;;;;;5013942;28;20026;-76
2021/08/25 06:56:25;;;;;;;13.45;5.22;;;15.90;94.60;;;;;;5015412;28;20070;-78
2021/08/25 06:58:51;;;;;;;8.30;4.70;;;15.90;94.40;;;;;;5015655;28;20054;-77
2021/08/25 07:01:17;;;;;;;12.82;5.47;;;15.90;94.40;;;;;;5015195;28;20368;-83
2021/08/25 07:03:43;;;;;;;9.93;4.93;;;16.00;94.30;;;;;;5015467;28;20030;-77
2021/08/25 07:06:08;;;;;;;10.02;5.25;;;16.00;94.30;;;;;;5014285;28;20450;-76
2021/08/25 07:08:34;;;;;;;11.88;5.22;;;16.00;94.30;;;;;;5032498;28;20099;-74
2021/08/25 07:11:00;;;;;;;12.02;6.35;;;16.00;94.20;;;;;;5035547;28;20025;-76
2021/08/25 07:13:25;;;;;;;12.13;5.53;;;16.10;94.30;;;;;;5035130;28;20033;-70
2021/08/25 07:15:51;;;;;;;13.48;6.15;;;16.10;94.20;;;;;;5035069;28;20035;-70
2021/08/25 07:18:17;;;;;;;9.75;4.97;;;16.30;94.00;;;;;;5035053;28;20026;-76
2021/08/25 07:20:43;;;;;;;12.07;4.95;;;16.30;94.10;;;;;;5034642;28;20029;-75
2021/08/25 07:23:08;;;;;;;10.05;4.90;;;16.30;93.90;;;;;;5033905;28;20113;-75
2021/08/25 07:25:34;;;;;;;12.73;4.75;;;16.30;93.80;;;;;;5035372;28;20038;-85
2021/08/25 07:27:59;;;;;;;8.63;4.63;;;16.50;93.70;;;;;;5034656;28;20516;-75
2021/08/25 07:30:25;;;;;;;8.93;4.97;;;16.60;93.60;;;;;;5034555;28;20412;-76
2021/08/25 07:32:51;;;;;;;10.10;5.07;;;16.70;93.60;;;;;;5034546;28;20040;-73
2021/08/25 07:35:16;;;;;;;11.55;4.78;;;16.80;93.50;;;;;;5034534;28;20049;-74
2021/08/25 07:37:42;;;;;;;11.25;4.97;;;16.90;93.30;;;;;;5034326;28;20048;-75
2021/08/25 07:40:09;;;;;;;9.50;4.45;;;16.90;93.30;;;;;;5034383;28;20472;-75
2021/08/25 07:42:34;;;;;;;9.27;4.90;;;16.80;93.20;;;;;;5023911;28;20103;-75
2021/08/25 07:45:00;;;;;;;8.95;5.03;;;17.00;93.20;;;;;;5013385;28;20112;-75
2021/08/25 07:47:26;;;;;;;10.43;5.47;;;17.10;93.20;;;;;;5014438;28;20029;-74
2021/08/25 07:49:51;;;;;;;14.75;4.82;;;17.10;92.90;;;;;;5014407;28;20018;-71
2021/08/25 07:52:17;;;;;;;9.80;5.22;;;17.30;93.10;;;;;;5012981;28;20037;-76
2021/08/25 07:54:43;;;;;;;15.23;7.07;;;17.40;92.50;;;;;;5013916;28;20044;-76
2021/08/25 07:57:09;;;;;;;11.95;5.57;;;17.50;92.40;;;;;;5013775;28;20586;-76
2021/08/25 07:59:34;;;;;;;11.20;4.60;;;17.60;92.40;;;;;;5013676;28;20041;-75
2021/08/25 08:02:00;;;;;;;9.50;4.43;;;17.70;92.20;;;;;;5014288;28;20048;-71
2021/08/25 08:04:26;;;;;;;16.23;5.03;;;17.90;92.00;;;;;;5013479;28;20022;-74
2021/08/25 08:06:52;;;;;;;12.75;5.35;;;18.00;91.90;;;;;;5014013;28;20100;-76
2021/08/25 08:09:18;;;;;;;10.45;4.38;;;18.00;91.90;;;;;;5013693;28;20034;-76
2021/08/25 08:11:44;;;;;;;8.60;4.30;;;18.20;91.90;;;;;;5013758;28;20244;-71
2021/08/25 08:14:09;;;;;;;6.65;3.90;;;18.10;91.60;;;;;;5013108;28;20395;-74
2021/08/25 08:16:35;;;;;;;14.30;4.18;;;18.20;91.40;;;;;;5012827;28;20439;-75
2021/08/25 08:19:05;;;;;;;7.38;3.67;;;18.50;91.80;;;;;;5013835;28;20508;-73
2021/08/25 08:21:31;;;;;;;10.10;4.07;;;18.80;91.30;;;;;;5010528;28;20052;-77
2021/08/25 08:23:58;;;;;;;6.93;3.20;;;19.40;90.80;;;;;;5013123;28;20418;-77
2021/08/25 08:26:28;;;;;;;10.52;4.28;;;20.00;90.00;;;;;;5012941;28;20109;-77
2021/08/25 08:28:55;;;;;;;8.60;4.22;;;20.40;88.40;;;;;;5014167;28;20436;-73
2021/08/25 08:31:21;;;;;;;11.70;3.65;;;20.60;88.10;;;;;;5013899;28;20048;-73
2021/08/25 08:33:46;;;;;;;8.05;4.05;;;20.50;87.60;;;;;;5013790;28;20117;-75
2021/08/25 08:36:12;;;;;;;9.95;4.10;;;20.80;86.00;;;;;;5013580;28;20026;-74
2021/08/25 08:38:37;;;;;;;7.65;4.10;;;21.50;84.60;;;;;;5013652;28;20026;-74
2021/08/25 08:41:03;;;;;;;9.00;3.63;;;21.90;83.90;;;;;;5014151;28;20566;-73
2021/08/25 08:43:29;;;;;;;15.27;4.03;;;22.90;81.30;;;;;;5013386;28;20526;-73
2021/08/25 08:45:55;;;;;;;6.82;3.80;;;24.00;79.70;;;;;;5013608;28;20041;-73
2021/08/25 08:48:21;;;;;;;9.73;4.28;;;25.10;78.40;;;;;;5013562;28;20030;-75
2021/08/25 08:50:48;;;;;;;12.35;3.72;;;26.00;76.30;;;;;;5013565;28;20121;-74
2021/08/25 08:53:17;;;;;;;11.10;4.20;;;26.40;70.80;;;;;;5013915;28;20025;-70
2021/08/25 08:55:43;;;;;;;10.00;3.42;;;26.40;70.00;;;;;;5013368;28;20030;-74
2021/08/25 08:58:09;;;;;;;10.18;3.58;;;26.90;69.90;;;;;;5013094;28;20503;-74
2021/08/25 09:00:35;;;;;;;8.63;3.83;;;27.00;69.00;;;;;;5012258;28;20050;-76
2021/08/25 09:03:01;;;;;;;10.50;3.72;;;27.70;63.80;;;;;;5013217;28;20496;-73
2021/08/25 09:05:33;;;;;;;8.80;4.78;;;27.90;65.70;;;;;;5011822;28;20030;-73
2021/08/25 09:08:04;;;;;;;10.32;4.13;;;28.50;64.00;;;;;;5013697;28;20044;-75
2021/08/25 09:10:32;;;;;;;8.88;4.20;;;28.30;60.70;;;;;;5013069;28;20486;-73
2021/08/25 09:13:00;;;;;;;6.13;3.75;;;27.30;60.20;;;;;;5012968;28;20038;-70
2021/08/25 09:15:31;;;;;;;7.22;4.45;;;27.30;60.90;;;;;;5010468;28;20391;-71
2021/08/25 09:18:06;;;;;;;8.35;3.50;;;28.20;60.10;;;;;;5012613;28;20030;-73
2021/08/25 09:20:40;;;;;;;8.50;4.65;;;29.10;61.60;;;;;;5009539;28;20104;-70
2021/08/25 09:23:20;;;;;;;8.13;3.40;;;29.40;58.20;;;;;;5013242;28;20029;-71
2021/08/25 09:25:48;;;;;;;6.93;4.07;;;29.90;58.70;;;;;;5032701;28;20519;-73
2021/08/25 09:28:17;;;;;;;8.65;4.20;;;30.40;56.70;;;;;;5032790;28;20346;-73
2021/08/25 09:31:01;;;;;;;10.02;4.28;;;29.80;56.70;;;;;;5032503;28;20029;-73
2021/08/25 09:33:39;;;;;;;9.50;4.15;;;30.30;55.60;;;;;;5022001;28;20133;-72
2021/08/25 09:36:06;;;;;;;;;;;30.50;54.40;;;;;;5019189;28;20048;-72
2021/08/25 09:38:33;;;;;;;13.98;4.07;;;30.40;53.70;;;;;;5032435;28;20300;-72
2021/08/25 09:41:09;;;;;;;;;;;29.90;54.20;;;;;;5033163;28;20474;-72
2021/08/25 09:43:42;;;;;;;8.90;3.80;;;29.10;55.20;;;;;;5032254;28;19917;-73
2021/08/25 09:46:18;;;;;;;8.93;3.88;;;29.50;54.80;;;;;;5032378;28;20025;-70
2021/08/25 09:48:55;;;;;;;13.02;4.70;;;30.20;55.20;;;;;;5031834;28;20061;-69
2021/08/25 09:51:26;;;;;;;8.95;5.65;;;30.70;53.10;;;;;;5022663;28;20033;-71
2021/08/25 09:54:05;;;;;;;7.70;3.90;;;30.80;53.90;;;;;;5016432;28;20033;-77
2021/08/25 09:56:34;;;;;;;7.72;4.10;;;30.60;53.00;;;;;;5031986;28;20435;-72
2021/08/25 09:59:03;;;;;;;8.27;4.18;;;29.60;53.90;;;;;;5032520;28;20045;-74
2021/08/25 10:01:29;;;;;;;16.50;9.82;;;30.00;54.80;;;;;;5033042;28;20053;-72
2021/08/25 10:03:55;;;;;;;11.70;5.50;;;30.80;52.80;;;;;;5031560;28;20131;-73
2021/08/25 10:06:24;;;;;;;10.00;6.05;;;29.80;53.50;;;;;;5032016;28;20444;-72
2021/08/25 10:08:51;;;;;;;14.40;4.13;;;30.50;53.90;;;;;;5031740;28;20033;-71
2021/08/25 10:11:38;;;;;;;6.38;3.88;;;30.80;53.80;;;;;;5032169;28;20021;-73
2021/08/25 10:14:09;;;;;;;9.50;4.40;;;30.40;53.10;;;;;;5011990;28;20034;-70
2021/08/25 10:16:49;;;;;;;6.97;3.60;;;31.10;52.50;;;;;;5011928;28;20415;-74
2021/08/25 10:19:26;;;;;;;9.65;3.88;;;32.30;50.30;;;;;;5011571;28;20030;-71
2021/08/25 10:21:54;;;;;;;11.27;4.53;;;30.80;50.20;;;;;;5011924;28;20044;-71
2021/08/25 10:24:20;;;;;;;7.65;4.15;;;30.30;51.30;;;;;;5011671;28;20033;-73
2021/08/25 10:26:58;;;;;;;6.22;4.40;;;30.00;50.50;;;;;;5011610;28;20440;-73
2021/08/25 10:29:28;;;;;;;5.72;3.83;;;29.40;51.20;;;;;;5012008;28;20368;-72
2021/08/25 10:31:56;;;;;;;6.68;3.30;;;29.10;50.60;;;;;;5012265;28;20022;-70
2021/08/25 10:34:38;;;;;;;7.18;4.22;;;28.40;52.70;;;;;;5011567;28;20034;-71
2021/08/25 10:37:19;;;;;;;10.40;5.88;;;28.40;53.30;;;;;;5011402;28;20034;-71
2021/08/25 10:39:45;;;;;;;11.13;6.00;;;28.80;52.80;;;;;;5010531;28;20544;-73
2021/08/25 10:42:10;;;;;;;8.00;3.78;;;29.60;53.60;;;;;;5011171;28;20125;-73
2021/08/25 10:47:12;;;;;;;13.07;4.38;;;28.50;53.00;;;;;;5011622;28;20377;-72
2021/08/25 10:49:47;;;;;;;13.30;3.33;;;28.00;52.40;;;;;;5010149;28;20037;-73
2021/08/25 10:52:15;;;;;;;7.82;4.28;;;27.30;54.20;;;;;;5010117;28;20488;-70
2021/08/25 10:54:43;;;;;;;8.45;3.70;;;26.70;55.10;;;;;;5011008;28;20516;-69
2021/08/25 10:57:10;;;;;;;9.07;3.83;;;26.00;56.70;;;;;;5010916;28;20115;-69
2021/08/25 10:59:36;;;;;;;12.07;4.93;;;26.50;56.40;;;;;;5011167;28;20030;-70
2021/08/25 11:02:02;;;;;;;9.55;4.45;;;26.00;57.10;;;;;;5011213;28;20116;-70
2021/08/25 11:04:28;;;;;;;8.95;4.35;;;25.50;58.70;;;;;;5009862;28;20452;-70
2021/08/25 11:07:01;;;;;;;10.70;4.43;;;25.40;59.20;;;;;;5010826;28;20030;-69
2021/08/25 11:09:42;;;;;;;11.32;4.68;;;26.10;58.70;;;;;;5010084;28;20030;-69
2021/08/25 11:12:13;;;;;;;9.25;4.70;;;25.60;59.40;;;;;;5007956;28;20132;-68
2021/08/25 11:14:53;;;;;;;8.75;4.25;;;25.50;59.90;;;;;;5011064;28;20045;-71
2021/08/25 11:17:32;;;;;;;11.20;4.43;;;25.50;61.30;;;;;;5011874;28;20026;-73
2021/08/25 11:19:59;;;;;;;7.07;4.05;;;25.80;61.20;;;;;;5011611;28;20041;-71
2021/08/25 11:22:29;;;;;;;10.02;4.30;;;25.30;61.00;;;;;;5010228;28;20033;-73
2021/08/25 11:25:07;;;;;;;10.85;4.28;;;25.80;61.10;;;;;;5011338;28;20034;-73
2021/08/25 11:27:35;;;;;;;7.70;3.72;;;25.30;60.50;;;;;;5010331;28;20228;-71
2021/08/25 11:30:06;;;;;;;10.55;3.95;;;25.30;61.10;;;;;;5011109;28;20038;-71
2021/08/25 11:32:55;;;;;;;12.55;3.97;;;25.50;61.70;;;;;;5011250;28;20499;-74
2021/08/25 11:35:33;;;;;;;6.07;3.95;;;25.10;60.70;;;;;;5011080;28;20021;-70
2021/08/25 11:38:01;;;;;;;5.60;3.65;;;24.80;62.20;;;;;;5011599;28;20026;-68
2021/08/25 11:40:29;;;;;;;9.82;4.05;;;24.60;62.70;;;;;;5014150;28;20239;-70
2021/08/25 11:42:55;;;;;;;7.60;4.55;;;24.60;63.30;;;;;;5014723;28;20046;-71
2021/08/25 11:45:32;;;;;;;6.93;4.10;;;24.80;63.10;;;;;;5014772;28;20044;-70
2021/08/25 11:47:58;;;;;;;8.20;3.80;;;24.60;63.30;;;;;;5014610;28;20068;-69
2021/08/25 11:50:26;;;;;;;4.63;3.03;;;24.80;63.10;;;;;;5014499;28;20251;-71
2021/08/25 11:52:52;;;;;;;7.85;3.67;;;25.00;63.00;;;;;;5014998;28;20045;-74
2021/08/25 11:55:18;;;;;;;11.10;3.50;;;25.30;62.10;;;;;;5014226;28;20041;-72
2021/08/25 11:57:55;;;;;;;7.82;3.92;;;25.40;61.80;;;;;;5013420;28;20057;-73
2021/08/25 12:00:26;;;;;;;8.52;3.47;;;25.10;61.90;;;;;;5014538;28;20040;-74
2021/08/25 12:03:00;;;;;;;9.25;4.15;;;25.30;62.60;;;;;;5014325;28;20062;-71
2021/08/25 12:05:30;;;;;;;8.45;3.58;;;25.20;62.60;;;;;;5014188;28;20376;-69
2021/08/25 12:08:03;;;;;;;7.57;4.22;;;25.10;62.90;;;;;;5014695;28;20364;-70
2021/08/25 12:10:30;;;;;;;7.57;3.60;;;24.80;62.70;;;;;;5013977;28;20108;-70
2021/08/25 12:12:59;;;;;;;9.98;3.85;;;24.90;63.10;;;;;;5014114;28;20040;-70
2021/08/25 12:15:43;;;;;;;9.52;4.28;;;24.80;63.20;;;;;;5013885;28;20092;-74
2021/08/25 12:18:08;;;;;;;11.10;3.67;;;24.80;63.80;;;;;;5014011;28;20041;-71
2021/08/25 12:20:35;;;;;;;7.30;4.55;;;24.60;63.40;;;;;;5014004;28;20401;-69
2021/08/25 12:23:08;;;;;;;11.57;3.70;;;24.30;63.10;;;;;;5014418;28;20022;-72
2021/08/25 12:25:43;;;;;;;8.70;4.28;;;24.20;64.30;;;;;;5013646;28;20701;-72
2021/08/25 12:28:29;;;;;;;8.15;3.90;;;24.10;64.50;;;;;;5013775;28;20026;-69
2021/08/25 12:31:14;;;;;;;11.35;4.57;;;24.20;64.20;;;;;;5013626;28;20044;-68
2021/08/25 12:33:42;;;;;;;9.80;4.60;;;24.00;64.00;;;;;;5013588;28;20030;-68
2021/08/25 12:36:23;;;;;;;7.57;3.60;;;24.10;62.60;;;;;;5013410;28;20030;-69
2021/08/25 12:39:10;;;;;;;7.50;4.00;;;24.10;62.90;;;;;;5013310;28;20046;-73
2021/08/25 12:41:45;;;;;;;8.95;4.03;;;24.30;63.20;;;;;;5012921;28;20065;-72
2021/08/25 12:44:11;;;;;;;8.88;3.33;;;24.20;63.60;;;;;;5013839;28;20026;-70
2021/08/25 12:46:54;;;;;;;5.70;3.50;;;24.20;63.70;;;;;;5013400;28;20519;-70
2021/08/25 12:49:21;;;;;;;7.13;3.65;;;24.10;63.90;;;;;;5013362;28;20403;-72